This is the latest recevied weather packets stored in our database for station/object ZR6G-15. If no packets are shown the sender has not sent any weather packets the latest 10 day(s).
| Time | Temp. | Humidity | Pressure | Rain* | Wind** | Luminosity | Snow |
|---|---|---|---|---|---|---|---|
| 1777723296 | 21.67° C | 17% | 1011.1 hPa | - | - | - | - |
| 1777722691 | 22.78° C | 17% | 1011 hPa | - | - | - | - |
| 1777722086 | 22.78° C | 17% | 1011.1 hPa | - | - | - | - |
| 1777721482 | 22.78° C | 17% | 1011.2 hPa | - | - | - | - |
| 1777720877 | 22.78° C | 17% | 1011.3 hPa | - | - | - | - |
| 1777720272 | 22.78° C | 17% | 1011.4 hPa | - | - | - | - |
| 1777719667 | 22.78° C | 17% | 1011.5 hPa | - | - | - | - |
| 1777719063 | 22.78° C | 17% | 1011.6 hPa | - | - | - | - |
| 1777718458 | 22.78° C | 17% | 1011.9 hPa | - | - | - | - |
| 1777717854 | 22.78° C | 17% | 1012 hPa | - | - | - | - |
| 1777717249 | 22.78° C | 17% | 1012.1 hPa | - | - | - | - |
| 1777716645 | 22.78° C | 17% | 1012.3 hPa | - | - | - | - |
| 1777716040 | 22.78° C | 17% | 1012.5 hPa | - | - | - | - |
| 1777715436 | 22.78° C | 17% | 1012.2 hPa | - | - | - | - |
| 1777714831 | 22.78° C | 17% | 1012.4 hPa | - | - | - | - |
| 1777714226 | 22.78° C | 17% | 1012.7 hPa | - | - | - | - |
| 1777713622 | 22.78° C | 17% | 1012.9 hPa | - | - | - | - |
| 1777713017 | 21.67° C | 17% | 1013.2 hPa | - | - | - | - |
| 1777711806 | 21.67° C | 19% | 1013.7 hPa | - | - | - | - |
| 1777711201 | 20.56° C | 18% | 1014.1 hPa | - | - | - | - |
| 1777710597 | 20° C | 20% | 1014.5 hPa | - | - | - | - |
| 1777709993 | 18.89° C | 24% | 1015.4 hPa | - | - | - | - |
| 1777709388 | 17.78° C | 33% | 1016.2 hPa | - | - | - | - |
| 1777708783 | 16.67° C | 25% | 1017 hPa | - | - | - | - |
| 1777708179 | 15° C | 29% | 1017.8 hPa | - | - | - | - |
* Rain since midnight (hover to see other rain measurements)
** Current wind speed in m/s (hover to see current wind gust speed)